Observation data for McLean on 01/22/2019      Previous  Date  Next       Current Mesonet Observations  Soil Data  Daily Summary Page  Observations in Plain Language
KMCS 220600Z 17013KT 11/01 A2959 RMK A01 T01080007  RH  050%=      5-min Rain = 0
KMCS 220605Z 17013KT 11/01 A2959 RMK A01 T01080007  RH  050%=      5-min Rain = 0
KMCS 220610Z 17012KT 11/01 A2959 RMK A01 T01070006  RH  051%=      5-min Rain = 0
KMCS 220615Z 17012KT 11/01 A2958 RMK A01 T01050007  RH  051%=      5-min Rain = 0
KMCS 220620Z 17011KT 10/01 A2959 RMK A01 T01040006  RH  051%=      5-min Rain = 0
KMCS 220625Z 18012G17KT 10/01 A2959 RMK A01 T01040006  RH  051%=      5-min Rain = 0
KMCS 220630Z 18013KT 11/01 A2959 RMK A01 T01050007  RH  051%=      5-min Rain = 0
KMCS 220635Z 18013KT 10/01 A2959 RMK A01 T01040007  RH  051%=      5-min Rain = 0
KMCS 220640Z 18013G18KT 10/01 A2959 RMK A01 T01040007  RH  051%=      5-min Rain = 0
KMCS 220645Z 18012G17KT 10/01 A2959 RMK A01 T01030006  RH  052%=      5-min Rain = 0
KMCS 220650Z 18012KT 10/01 A2959 RMK A01 T01010006  RH  052%=      5-min Rain = 0
KMCS 220655Z 18013KT 10/01 A2959 RMK A01 T01000007  RH  053%=      5-min Rain = 0
KMCS 220700Z 18013G18KT 10/01 A2959 RMK A01 T01000007  RH  053%=      5-min Rain = 0
KMCS 220705Z 18013G18KT 10/01 A2959 RMK A01 T01000007  RH  053%=      5-min Rain = 0
KMCS 220710Z 18014KT 10/01 A2959 RMK A01 T00990007  RH  053%=      5-min Rain = 0
KMCS 220715Z 18013KT 10/01 A2959 RMK A01 T00980007  RH  053%=      5-min Rain = 0
KMCS 220720Z 18013G19KT 10/01 A2959 RMK A01 T00980007  RH  054%=      5-min Rain = 0
KMCS 220725Z 18014G20KT 10/01 A2959 RMK A01 T00980007  RH  054%=      5-min Rain = 0
KMCS 220730Z 18014G19KT 10/01 A2958 RMK A01 T00980007  RH  054%=      5-min Rain = 0
KMCS 220735Z 18014G21KT 10/01 A2958 RMK A01 T00970007  RH  054%=      5-min Rain = 0
KMCS 220740Z 18016G21KT 10/01 A2958 RMK A01 T00990007  RH  054%=      5-min Rain = 0
KMCS 220745Z 18015G22KT 10/01 A2958 RMK A01 T00990007  RH  054%=      5-min Rain = 0
KMCS 220750Z 18014G20KT 10/01 A2958 RMK A01 T00970007  RH  054%=      5-min Rain = 0
KMCS 220755Z 18015G22KT 10/01 A2958 RMK A01 T00960007  RH  055%=      5-min Rain = 0
KMCS 220800Z 18014G19KT 09/01 A2958 RMK A01 T00940008  RH  055%=      5-min Rain = 0
KMCS 220805Z 18015G20KT 09/01 A2958 RMK A01 T00930008  RH  056%=      5-min Rain = 0
KMCS 220810Z 18014G19KT 09/01 A2958 RMK A01 T00910008  RH  057%=      5-min Rain = 0
KMCS 220815Z 18014KT 09/01 A2958 RMK A01 T00880008  RH  058%=      5-min Rain = 0
KMCS 220820Z 18013KT 09/01 A2959 RMK A01 T00870008  RH  059%=      5-min Rain = 0
KMCS 220825Z 19013KT 09/01 A2959 RMK A01 T00850008  RH  059%=      5-min Rain = 0
KMCS 220830Z 21011KT 09/01 A2961 RMK A01 T00850008  RH  059%=      5-min Rain = 0
KMCS 220835Z 21012G17KT 08/01 A2962 RMK A01 T00830008  RH  060%=      5-min Rain = 0
KMCS 220840Z 21011KT 08/01 A2962 RMK A01 T00830008  RH  060%=      5-min Rain = 0
KMCS 220845Z 22010KT 08/01 A2962 RMK A01 T00770006  RH  061%=      5-min Rain = 0
KMCS 220850Z 20011KT 07/00 A2961 RMK A01 T00720004  RH  063%=      5-min Rain = 0
KMCS 220855Z 20012KT 07/00 A2961 RMK A01 T00680004  RH  064%=      5-min Rain = 0
KMCS 220900Z 19011KT 07/00 A2961 RMK A01 T00700004  RH  064%=      5-min Rain = 0
KMCS 220905Z 19011KT 07/00 A296 RMK A01 T00690004  RH  064%=      5-min Rain = 0
KMCS 220910Z 19011KT 07/01 A2961 RMK A01 T00710005  RH  064%=      5-min Rain = 0
KMCS 220915Z 19012KT 07/01 A2961 RMK A01 T00730006  RH  063%=      5-min Rain = 0
KMCS 220920Z 19012KT 07/01 A2961 RMK A01 T00740007  RH  063%=      5-min Rain = 0
KMCS 220925Z 20012KT 08/01 A2961 RMK A01 T00750007  RH  063%=      5-min Rain = 0
KMCS 220930Z 19011KT 07/01 A2961 RMK A01 T00740008  RH  064%=      5-min Rain = 0
KMCS 220935Z 20010KT 07/01 A2961 RMK A01 T00720008  RH  064%=      5-min Rain = 0
KMCS 220940Z 20010KT 07/01 A2961 RMK A01 T00720009  RH  065%=      5-min Rain = 0
KMCS 220945Z 20010KT 07/01 A2961 RMK A01 T00710009  RH  066%=      5-min Rain = 0
KMCS 220950Z 20012KT 07/01 A2961 RMK A01 T00700009  RH  066%=      5-min Rain = 0
KMCS 220955Z 20013KT 08/01 A2961 RMK A01 T00750011  RH  065%=      5-min Rain = 0
KMCS 221000Z 22009KT 08/01 A2961 RMK A01 T00770011  RH  064%=      5-min Rain = 0
KMCS 221005Z 21009KT 08/01 A2961 RMK A01 T00760011  RH  065%=      5-min Rain = 0
KMCS 221010Z 20010KT 08/01 A2961 RMK A01 T00750011  RH  065%=      5-min Rain = 0
KMCS 221015Z 20010KT 07/01 A2961 RMK A01 T00700011  RH  067%=      5-min Rain = 0
KMCS 221020Z 20011KT 07/01 A2961 RMK A01 T00720012  RH  067%=      5-min Rain = 0
KMCS 221025Z 20012KT 08/01 A2962 RMK A01 T00770014  RH  065%=      5-min Rain = 0
KMCS 221030Z 21011KT 08/01 A2962 RMK A01 T00810014  RH  064%=      5-min Rain = 0
KMCS 221035Z 21011KT 08/01 A2962 RMK A01 T00820014  RH  063%=      5-min Rain = 0
KMCS 221040Z 21011KT 08/01 A2962 RMK A01 T00800014  RH  064%=      5-min Rain = 0
KMCS 221045Z 21011KT 08/01 A2963 RMK A01 T00770013  RH  065%=      5-min Rain = 0
KMCS 221050Z 21011KT 08/01 A2963 RMK A01 T00750013  RH  065%=      5-min Rain = 0
KMCS 221055Z 21012KT 08/01 A2963 RMK A01 T00750012  RH  065%=      5-min Rain = 0
KMCS 221100Z 21011KT 07/01 A2963 RMK A01 T00740011  RH  065%=      5-min Rain = 0
KMCS 221105Z 21011KT 07/01 A2963 RMK A01 T00720010  RH  066%=      5-min Rain = 0
KMCS 221110Z 22011KT 07/01 A2963 RMK A01 T00680009  RH  067%=      5-min Rain = 0
KMCS 221115Z 23010KT 07/01 A2963 RMK A01 T00650009  RH  068%=      5-min Rain = 0
KMCS 221120Z 22011KT 07/01 A2964 RMK A01 T00670009  RH  067%=      5-min Rain = 0
KMCS 221125Z 24009KT 07/01 A2964 RMK A01 T00660008  RH  067%=      5-min Rain = 0
KMCS 221130Z 24010KT 06/01 A2964 RMK A01 T00620007  RH  069%=      5-min Rain = 0
KMCS 221135Z 24009KT 06/01 A2964 RMK A01 T00630007  RH  068%=      5-min Rain = 0
KMCS 221140Z 24008KT 06/01 A2964 RMK A01 T00640006  RH  067%=      5-min Rain = 0
KMCS 221145Z 25008KT 06/00 A2964 RMK A01 T00620004  RH  067%=      5-min Rain = 0
KMCS 221150Z 25008KT 06/00 A2964 RMK A01 T00580002  RH  068%=      5-min Rain = 0
KMCS 221155Z 25009KT 05/00 A2964 RMK A01 T00540001  RH  069%=      5-min Rain = 0
KMCS 221200Z 25008KT 05/00 A2964 RMK A01 T005100-0  RH  070%=      5-min Rain = 0
KMCS 221205Z 26008KT 05/M00 A2964 RMK A01 T00501001  RH  070%=      5-min Rain = 0
KMCS 221210Z 28006KT 05/M00 A2964 RMK A01 T00541003  RH  067%=      5-min Rain = 0
KMCS 221215Z 29006KT 05/M01 A2964 RMK A01 T00521008  RH  066%=      5-min Rain = 0
KMCS 221220Z 30009KT 05/M01 A2963 RMK A01 T00541014  RH  062%=      5-min Rain = 0
KMCS 221225Z 29009KT 06/M02 A2963 RMK A01 T00581019  RH  058%=      5-min Rain = 0
KMCS 221230Z 31009KT 05/M02 A2963 RMK A01 T00541020  RH  059%=      5-min Rain = 0
KMCS 221235Z 31010KT 05/M02 A2963 RMK A01 T00471020  RH  062%=      5-min Rain = 0
KMCS 221240Z 32012KT 05/M02 A2963 RMK A01 T00461021  RH  062%=      5-min Rain = 0
KMCS 221245Z 33014KT 05/M02 A2964 RMK A01 T00451022  RH  062%=      5-min Rain = 0
KMCS 221250Z 33014KT 05/M02 A2964 RMK A01 T00471023  RH  061%=      5-min Rain = 0
KMCS 221255Z 34016G23KT 05/M03 A2965 RMK A01 T00461025  RH  061%=      5-min Rain = 0
KMCS 221300Z 34018G25KT 04/M03 A2966 RMK A01 T00401025  RH  063%=      5-min Rain = 0
KMCS 221305Z 34019G26KT 03/M02 A2967 RMK A01 T00291024  RH  068%=      5-min Rain = 0
KMCS 221310Z 34021KT 02/M02 A2968 RMK A01 T00161023  RH  076%=      5-min Rain = 0
KMCS 221315Z 35020G25KT 01/M02 A2969 RMK A01 T00071024  RH  080%=      5-min Rain = 0
KMCS 221320Z 34020G25KT 00/M03 A297 RMK A01 T00011025  RH  083%=      5-min Rain = 0
KMCS 221325Z 33022G28KT M01/M02 A2971 RMK A01 T10051024  RH  087%=      5-min Rain = 0
KMCS 221330Z 33021G26KT M00/M02 A2972 RMK A01 T10041021  RH  089%=      5-min Rain = 0
KMCS 221335Z 33021G26KT M00/M02 A2972 RMK A01 T10031018  RH  090%=      5-min Rain = 0
KMCS 221340Z 33021G27KT M00/M02 A2972 RMK A01 T10021016  RH  091%=      5-min Rain = 0
KMCS 221345Z 34022G27KT M00/M02 A2972 RMK A01 T10011015  RH  091%=      5-min Rain = 0
KMCS 221350Z 34022G27KT 00/02 A2973 RMK A01 T00-00-15  RH  091%=      5-min Rain = 0
KMCS 221355Z 34021G26KT 00/02 A2973 RMK A01 T00-00-15  RH  090%=      5-min Rain = 0
KMCS 221400Z 33021G26KT 00/02 A2973 RMK A01 T00-00-15  RH  090%=      5-min Rain = 0
KMCS 221405Z 33020KT 00/M02 A2973 RMK A01 T00011015  RH  090%=      5-min Rain = 0
KMCS 221410Z 34022G27KT 00/M02 A2973 RMK A01 T00011015  RH  090%=      5-min Rain = 0
KMCS 221415Z 34021G29KT 00/M02 A2974 RMK A01 T00021015  RH  089%=      5-min Rain = 0
KMCS 221420Z 34021G27KT 00/M02 A2974 RMK A01 T00021016  RH  088%=      5-min Rain = 0
KMCS 221425Z 34020G28KT 00/M02 A2975 RMK A01 T00021016  RH  088%=      5-min Rain = 0
KMCS 221430Z 34021G26KT 00/M02 A2975 RMK A01 T00021017  RH  088%=      5-min Rain = 0
KMCS 221435Z 34020G28KT 00/M02 A2976 RMK A01 T00021017  RH  088%=      5-min Rain = 0
KMCS 221440Z 34020G26KT 00/M02 A2976 RMK A01 T00011018  RH  088%=      5-min Rain = 0
KMCS 221445Z 35020G26KT 00/M02 A2976 RMK A01 T00011019  RH  088%=      5-min Rain = 0
KMCS 221450Z 35021G28KT M00/M02 A2977 RMK A01 T10011021  RH  087%=      5-min Rain = 0
KMCS 221455Z 35021G27KT M00/M02 A2977 RMK A01 T10021021  RH  087%=      5-min Rain = 0
KMCS 221500Z 35020G26KT M00/M02 A2979 RMK A01 T10031023  RH  087%=      5-min Rain = 0
KMCS 221505Z 34022G28KT M00/M02 A2978 RMK A01 T10041024  RH  087%=      5-min Rain = 0
KMCS 221510Z 34023G33KT M00/M03 A2978 RMK A01 T10041025  RH  086%=      5-min Rain = 0
KMCS 221515Z 34025G32KT M01/M03 A2979 RMK A01 T10051027  RH  085%=      5-min Rain = 0
KMCS 221520Z 35025G32KT M01/M03 A2979 RMK A01 T10061028  RH  085%=      5-min Rain = 0
KMCS 221525Z 35020G27KT M01/M03 A298 RMK A01 T10051028  RH  085%=      5-min Rain = 0
KMCS 221530Z 34022G28KT M01/M03 A298 RMK A01 T10061029  RH  085%=      5-min Rain = 0
KMCS 221535Z 34023G29KT M01/M03 A298 RMK A01 T10071031  RH  084%=      5-min Rain = 0
KMCS 221540Z 34026G33KT M01/M03 A298 RMK A01 T10071032  RH  084%=      5-min Rain = 0
KMCS 221545Z 34026G32KT M01/M03 A2981 RMK A01 T10081033  RH  083%=      5-min Rain = 0
KMCS 221550Z 34025G35KT M01/M04 A2981 RMK A01 T10081035  RH  083%=      5-min Rain = 0
KMCS 221555Z 34025G35KT M01/M04 A2981 RMK A01 T10091037  RH  082%=      5-min Rain = 0
KMCS 221600Z 34024G30KT M01/M04 A2981 RMK A01 T10101038  RH  082%=      5-min Rain = 0
KMCS 221605Z 34026G35KT M01/M04 A2981 RMK A01 T10091040  RH  080%=      5-min Rain = 0
KMCS 221610Z 34025G33KT M01/M04 A2983 RMK A01 T10091041  RH  079%=      5-min Rain = 0
KMCS 221615Z 34022G28KT M01/M04 A2983 RMK A01 T10061039  RH  079%=      5-min Rain = 0
KMCS 221620Z 34025G33KT M01/M04 A2983 RMK A01 T10061041  RH  078%=      5-min Rain = 0
KMCS 221625Z 34024G31KT M01/M04 A2984 RMK A01 T10081043  RH  078%=      5-min Rain = 0
KMCS 221630Z 34025G31KT M01/M04 A2984 RMK A01 T10091044  RH  078%=      5-min Rain = 0
KMCS 221635Z 33025G31KT M01/M04 A2984 RMK A01 T10081044  RH  077%=      5-min Rain = 0
KMCS 221640Z 33027G32KT M01/M05 A2984 RMK A01 T10101046  RH  076%=      5-min Rain = 0
KMCS 221645Z 34026G33KT M01/M05 A2984 RMK A01 T10101047  RH  076%=      5-min Rain = 0
KMCS 221650Z 34024G32KT M01/M05 A2985 RMK A01 T10101048  RH  076%=      5-min Rain = 0
KMCS 221655Z 34026G32KT M01/M05 A2985 RMK A01 T10111048  RH  076%=      5-min Rain = 0
KMCS 221700Z 34025G30KT M01/M05 A2985 RMK A01 T10111048  RH  076%=      5-min Rain = 0
KMCS 221705Z 34024G31KT M01/M05 A2985 RMK A01 T10111048  RH  076%=      5-min Rain = 0
KMCS 221710Z 34022G30KT M01/M05 A2985 RMK A01 T10101048  RH  076%=      5-min Rain = 0
KMCS 221715Z 34026G32KT M01/M05 A2986 RMK A01 T10111048  RH  076%=      5-min Rain = 0
KMCS 221720Z 35024G34KT M01/M05 A2986 RMK A01 T10101048  RH  076%=      5-min Rain = 0
KMCS 221725Z 34023G31KT M01/M05 A2987 RMK A01 T10101048  RH  076%=      5-min Rain = 0
KMCS 221730Z 34025G32KT M01/M05 A2987 RMK A01 T10111048  RH  076%=      5-min Rain = 0
KMCS 221735Z 34022G29KT M01/M05 A2988 RMK A01 T10101047  RH  076%=      5-min Rain = 0
KMCS 221740Z 34023G28KT M01/M05 A2988 RMK A01 T10111047  RH  077%=      5-min Rain = 0
KMCS 221745Z 34023G34KT M01/M05 A2988 RMK A01 T10111047  RH  077%=      5-min Rain = 0
KMCS 221750Z 34024G31KT M01/M05 A2989 RMK A01 T10131048  RH  077%=      5-min Rain = 0
KMCS 221755Z 34025G34KT M01/M05 A2989 RMK A01 T10141048  RH  078%=      5-min Rain = 0
KMCS 221800Z 34024G31KT M01/M05 A2988 RMK A01 T10131048  RH  077%=      5-min Rain = 0
KMCS 221805Z 34026G31KT M01/M05 A2988 RMK A01 T10131049  RH  077%=      5-min Rain = 0
KMCS 221810Z 34025G33KT M01/M05 A2989 RMK A01 T10131051  RH  076%=      5-min Rain = 0
KMCS 221815Z 34025G34KT M01/M05 A2989 RMK A01 T10121051  RH  075%=      5-min Rain = 0
KMCS 221820Z 34025G32KT M01/M05 A299 RMK A01 T10121051  RH  075%=      5-min Rain = 0
KMCS 221825Z 35025G32KT M01/M05 A299 RMK A01 T10131051  RH  075%=      5-min Rain = 0
KMCS 221830Z 34026G34KT M01/M05 A2989 RMK A01 T10121050  RH  076%=      5-min Rain = 0
KMCS 221835Z 34026G33KT M01/M05 A299 RMK A01 T10141050  RH  076%=      5-min Rain = 0
KMCS 221840Z 34024G31KT M01/M05 A299 RMK A01 T10131050  RH  077%=      5-min Rain = 0
KMCS 221845Z 34026G33KT M01/M05 A299 RMK A01 T10121049  RH  076%=      5-min Rain = 0
KMCS 221850Z 34026G34KT M01/M05 A299 RMK A01 T10121049  RH  076%=      5-min Rain = 0
KMCS 221855Z 34023G29KT M01/M05 A299 RMK A01 T10141049  RH  077%=      5-min Rain = 0
KMCS 221900Z 33025G32KT M02/M05 A299 RMK A01 T10151049  RH  078%=      5-min Rain = 0
KMCS 221905Z 34023G32KT M02/M05 A299 RMK A01 T10161050  RH  078%=      5-min Rain = 0
KMCS 221910Z 34025G33KT M02/M05 A299 RMK A01 T10171052  RH  078%=      5-min Rain = 0
KMCS 221915Z 33026G33KT M02/M05 A299 RMK A01 T10171052  RH  078%=      5-min Rain = 0
KMCS 221920Z 34028G35KT M02/M05 A299 RMK A01 T10191053  RH  078%=      5-min Rain = 0
KMCS 221925Z 34028G33KT M02/M05 A299 RMK A01 T10201054  RH  078%=      5-min Rain = 0
KMCS 221930Z 33024G34KT M02/M06 A2991 RMK A01 T10221056  RH  078%=      5-min Rain = 0
KMCS 221935Z 33024G34KT M02/M06 A2991 RMK A01 T10231057  RH  078%=      5-min Rain = 0
KMCS 221940Z 33024G31KT M02/M06 A2991 RMK A01 T10241058  RH  078%=      5-min Rain = 0
KMCS 221945Z 33024G33KT M02/M06 A2991 RMK A01 T10241058  RH  077%=      5-min Rain = 0
KMCS 221950Z 34024G32KT M02/M06 A2992 RMK A01 T10241059  RH  077%=      5-min Rain = 0
KMCS 221955Z 33026G32KT M02/M06 A2991 RMK A01 T10231061  RH  075%=      5-min Rain = 0
KMCS 222000Z 34026G34KT M02/M06 A2991 RMK A01 T10221063  RH  074%=      5-min Rain = 0
KMCS 222005Z 34026G34KT M02/M06 A2991 RMK A01 T10201063  RH  073%=      5-min Rain = 0
KMCS 222010Z 33026G34KT M02/M07 A2991 RMK A01 T10211065  RH  072%=      5-min Rain = 0
KMCS 222015Z 34025G33KT M02/M07 A2991 RMK A01 T10221067  RH  072%=      5-min Rain = 0
KMCS 222020Z 33025G33KT M02/M07 A2991 RMK A01 T10201067  RH  071%=      5-min Rain = 0
KMCS 222025Z 33028G35KT M02/M07 A2991 RMK A01 T10221068  RH  071%=      5-min Rain = 0
KMCS 222030Z 33024G32KT M02/M07 A2991 RMK A01 T10211069  RH  070%=      5-min Rain = 0
KMCS 222035Z 33025G36KT M02/M07 A299 RMK A01 T10201071  RH  068%=      5-min Rain = 0
KMCS 222040Z 33029G37KT M02/M08 A2991 RMK A01 T10231076  RH  067%=      5-min Rain = 0
KMCS 222045Z 33028G35KT M02/M08 A2992 RMK A01 T10221079  RH  065%=      5-min Rain = 0
KMCS 222050Z 33028G36KT M02/M08 A2992 RMK A01 T10181080  RH  062%=      5-min Rain = 0
KMCS 222055Z 33031G37KT M02/M08 A2991 RMK A01 T10151081  RH  060%=      5-min Rain = 0
KMCS 222100Z 33030G38KT M01/M08 A2991 RMK A01 T10131084  RH  059%=      5-min Rain = 0
KMCS 222105Z 33028G35KT M02/M09 A2992 RMK A01 T10161089  RH  057%=      5-min Rain = 0
KMCS 222110Z 33031G37KT M02/M09 A2992 RMK A01 T10171090  RH  057%=      5-min Rain = 0
KMCS 222115Z 33029G37KT M01/M09 A2993 RMK A01 T10141090  RH  056%=      5-min Rain = 0
KMCS 222120Z 33028G36KT M01/M09 A2993 RMK A01 T10141092  RH  055%=      5-min Rain = 0
KMCS 222125Z 33027G38KT M01/M09 A2993 RMK A01 T10131093  RH  054%=      5-min Rain = 0
KMCS 222130Z 32029G34KT M02/M10 A2993 RMK A01 T10161095  RH  055%=      5-min Rain = 0
KMCS 222135Z 33026G34KT M01/M10 A2994 RMK A01 T10141095  RH  054%=      5-min Rain = 0
KMCS 222140Z 33026G33KT M01/M10 A2994 RMK A01 T10141095  RH  054%=      5-min Rain = 0
KMCS 222145Z 34027G34KT M02/M10 A2995 RMK A01 T10181097  RH  055%=      5-min Rain = 0
KMCS 222150Z 32029G37KT M02/M10 A2995 RMK A01 T10191097  RH  055%=      5-min Rain = 0
KMCS 222155Z 33025G32KT M02/M10 A2996 RMK A01 T10181096  RH  055%=      5-min Rain = 0
KMCS 222200Z 33027G35KT M02/M10 A2996 RMK A01 T10191099  RH  054%=      5-min Rain = 0
KMCS 222205Z 33026G32KT M02/M10 A2996 RMK A01 T10201098  RH  055%=      5-min Rain = 0
KMCS 222210Z 33029G38KT M02/M10 A2996 RMK A01 T10201102  RH  053%=      5-min Rain = 0
KMCS 222215Z 33026G36KT M02/M10 A2997 RMK A01 T10211103  RH  053%=      5-min Rain = 0
KMCS 222220Z 32028G38KT M02/M11 A2997 RMK A01 T10211105  RH  052%=      5-min Rain = 0
KMCS 222225Z 33026G33KT M02/M11 A2998 RMK A01 T10221105  RH  053%=      5-min Rain = 0
KMCS 222230Z 33027G35KT M02/M11 A2998 RMK A01 T10211108  RH  051%=      5-min Rain = 0
KMCS 222235Z 33029G36KT M02/M11 A2998 RMK A01 T10221110  RH  051%=      5-min Rain = 0
KMCS 222240Z 33029G36KT M02/M11 A2999 RMK A01 T10231112  RH  050%=      5-min Rain = 0
KMCS 222245Z 33028G35KT M03/M11 A2999 RMK A01 T10251113  RH  050%=      5-min Rain = 0
KMCS 222250Z 33029G35KT M03/M11 A2999 RMK A01 T10261112  RH  052%=      5-min Rain = 0
KMCS 222255Z 34028G38KT M03/M11 A30 RMK A01 T10271113  RH  051%=      5-min Rain = 0
KMCS 222300Z 34025G32KT M03/M11 A30 RMK A01 T10291114  RH  051%=      5-min Rain = 0
KMCS 222305Z 34022G29KT M03/M11 A30 RMK A01 T10281111  RH  052%=      5-min Rain = 0
KMCS 222310Z 33025G33KT M03/M11 A30 RMK A01 T10281114  RH  051%=      5-min Rain = 0
KMCS 222315Z 34027G32KT M03/M12 A30 RMK A01 T10291115  RH  051%=      5-min Rain = 0
KMCS 222320Z 34026G32KT M03/M12 A30 RMK A01 T10301115  RH  052%=      5-min Rain = 0
KMCS 222325Z 34021G30KT M03/M11 A3001 RMK A01 T10301114  RH  052%=      5-min Rain = 0
KMCS 222330Z 34023G31KT M03/M11 A3001 RMK A01 T10311113  RH  053%=      5-min Rain = 0
KMCS 222335Z 34023G29KT M03/M11 A3001 RMK A01 T10311113  RH  053%=      5-min Rain = 0
KMCS 222340Z 33026G35KT M03/M11 A3001 RMK A01 T10321112  RH  053%=      5-min Rain = 0
KMCS 222345Z 34025G35KT M03/M11 A3001 RMK A01 T10321113  RH  053%=      5-min Rain = 0
KMCS 222350Z 34025G32KT M03/M11 A3001 RMK A01 T10341114  RH  054%=      5-min Rain = 0
KMCS 222355Z 34024G32KT M04/M11 A3002 RMK A01 T10351114  RH  054%=      5-min Rain = 0
KMCS 230000Z 34024G32KT M04/M11 A3002 RMK A01 T10371114  RH  055%=      5-min Rain = 0
KMCS 230005Z 34023G28KT M04/M11 A3002 RMK A01 T10381113  RH  055%=      5-min Rain = 0
KMCS 230010Z 34024G31KT M04/M12 A3002 RMK A01 T10381115  RH  055%=      5-min Rain = 0
KMCS 230015Z 34028G35KT M04/M12 A3002 RMK A01 T10391118  RH  054%=      5-min Rain = 0
KMCS 230020Z 34025G34KT M04/M12 A3002 RMK A01 T10401119  RH  054%=      5-min Rain = 0
KMCS 230025Z 34026G34KT M04/M12 A3003 RMK A01 T10401119  RH  054%=      5-min Rain = 0
KMCS 230030Z 34026G35KT M04/M12 A3003 RMK A01 T10411119  RH  054%=      5-min Rain = 0
KMCS 230035Z 34024G32KT M04/M12 A3003 RMK A01 T10421119  RH  055%=      5-min Rain = 0
KMCS 230040Z 34023G32KT M04/M12 A3004 RMK A01 T10441119  RH  055%=      5-min Rain = 0
KMCS 230045Z 34022G31KT M05/M12 A3004 RMK A01 T10461119  RH  056%=      5-min Rain = 0
KMCS 230050Z 34024G32KT M05/M12 A3004 RMK A01 T10461119  RH  056%=      5-min Rain = 0
KMCS 230055Z 34024G31KT M05/M12 A3005 RMK A01 T10471119  RH  057%=      5-min Rain = 0
KMCS 230100Z 34027G35KT M05/M12 A3005 RMK A01 T10481119  RH  057%=      5-min Rain = 0
KMCS 230105Z 34026G34KT M05/M12 A3005 RMK A01 T10491119  RH  058%=      5-min Rain = 0
KMCS 230110Z 34024G36KT M05/M12 A3006 RMK A01 T10501118  RH  059%=      5-min Rain = 0
KMCS 230115Z 34023G34KT M05/M12 A3006 RMK A01 T10511117  RH  060%=      5-min Rain = 0
KMCS 230120Z 34024G30KT M05/M12 A3006 RMK A01 T10521116  RH  060%=      5-min Rain = 0
KMCS 230125Z 34022G29KT M05/M12 A3006 RMK A01 T10531116  RH  061%=      5-min Rain = 0
KMCS 230130Z 34017G25KT M06/M12 A3006 RMK A01 T10551116  RH  062%=      5-min Rain = 0
KMCS 230135Z 34019G28KT M06/M12 A3006 RMK A01 T10561116  RH  063%=      5-min Rain = 0
KMCS 230140Z 34021G28KT M06/M12 A3007 RMK A01 T10561115  RH  063%=      5-min Rain = 0
KMCS 230145Z 34018G24KT M06/M12 A3007 RMK A01 T10571115  RH  063%=      5-min Rain = 0
KMCS 230150Z 34020G25KT M06/M11 A3007 RMK A01 T10571114  RH  064%=      5-min Rain = 0
KMCS 230155Z 34021G27KT M06/M11 A3007 RMK A01 T10571113  RH  064%=      5-min Rain = 0
KMCS 230200Z 34021G27KT M06/M11 A3007 RMK A01 T10581112  RH  065%=      5-min Rain = 0
KMCS 230205Z 34020G25KT M06/M11 A3007 RMK A01 T10581112  RH  065%=      5-min Rain = 0
KMCS 230210Z 34021G28KT M06/M11 A3007 RMK A01 T10591111  RH  066%=      5-min Rain = 0
KMCS 230215Z 34023G29KT M06/M11 A3007 RMK A01 T10591111  RH  067%=      5-min Rain = 0
KMCS 230220Z 34022G29KT M06/M11 A3007 RMK A01 T10591110  RH  067%=      5-min Rain = 0
KMCS 230225Z 34021G28KT M06/M11 A3007 RMK A01 T10601110  RH  068%=      5-min Rain = 0
KMCS 230230Z 34020G28KT M06/M11 A3007 RMK A01 T10611109  RH  068%=      5-min Rain = 0
KMCS 230235Z 34021G26KT M06/M11 A3007 RMK A01 T10611109  RH  069%=      5-min Rain = 0
KMCS 230240Z 34021G26KT M06/M11 A3007 RMK A01 T10611108  RH  069%=      5-min Rain = 0
KMCS 230245Z 34020G27KT M06/M11 A3007 RMK A01 T10621108  RH  069%=      5-min Rain = 0
KMCS 230250Z 34021KT M06/M11 A3007 RMK A01 T10621107  RH  070%=      5-min Rain = 0
KMCS 230255Z 33019G24KT M06/M11 A3007 RMK A01 T10621107  RH  070%=      5-min Rain = 0
KMCS 230300Z 33020G26KT M06/M11 A3007 RMK A01 T10621106  RH  071%=      5-min Rain = 0
KMCS 230305Z 33020G25KT M06/M11 A3007 RMK A01 T10621106  RH  071%=      5-min Rain = 0
KMCS 230310Z 33020G26KT M06/M11 A3007 RMK A01 T10631106  RH  071%=      5-min Rain = 0
KMCS 230315Z 33022G28KT M06/M11 A3007 RMK A01 T10631105  RH  072%=      5-min Rain = 0
KMCS 230320Z 33022KT M06/M11 A3007 RMK A01 T10631105  RH  072%=      5-min Rain = 0
KMCS 230325Z 33021G27KT M06/M11 A3007 RMK A01 T10641105  RH  072%=      5-min Rain = 0
KMCS 230330Z 33019G26KT M06/M11 A3007 RMK A01 T10641105  RH  073%=      5-min Rain = 0
KMCS 230335Z 33019G25KT M07/M10 A3007 RMK A01 T10651104  RH  073%=      5-min Rain = 0
KMCS 230340Z 33019G24KT M07/M10 A3007 RMK A01 T10651104  RH  074%=      5-min Rain = 0
KMCS 230345Z 33018G23KT M07/M10 A3007 RMK A01 T10651103  RH  074%=      5-min Rain = 0
KMCS 230350Z 33018G24KT M07/M10 A3008 RMK A01 T10651102  RH  075%=      5-min Rain = 0
KMCS 230355Z 34018G24KT M07/M10 A3008 RMK A01 T10651101  RH  075%=      5-min Rain = 0
KMCS 230400Z 33018G23KT M06/M10 A3008 RMK A01 T10641100  RH  075%=      5-min Rain = 0
KMCS 230405Z 33015G20KT M06/M10 A3008 RMK A01 T10641100  RH  076%=      5-min Rain = 0
KMCS 230410Z 33017G24KT M06/M10 A3008 RMK A01 T10631098  RH  076%=      5-min Rain = 0
KMCS 230415Z 33017KT M06/M10 A3008 RMK A01 T10621096  RH  076%=      5-min Rain = 0
KMCS 230420Z 33019G24KT M06/M10 A3007 RMK A01 T10611095  RH  076%=      5-min Rain = 0
KMCS 230425Z 33020G27KT M06/M09 A3007 RMK A01 T10601094  RH  077%=      5-min Rain = 0
KMCS 230430Z 33022G29KT M06/M09 A3007 RMK A01 T10581092  RH  076%=      5-min Rain = 0
KMCS 230435Z 33021G28KT M06/M09 A3007 RMK A01 T10571091  RH  076%=      5-min Rain = 0
KMCS 230440Z 33022G27KT M06/M09 A3007 RMK A01 T10551091  RH  076%=      5-min Rain = 0
KMCS 230445Z 33020KT M06/M09 A3007 RMK A01 T10551091  RH  076%=      5-min Rain = 0
KMCS 230450Z 33020KT M06/M09 A3008 RMK A01 T10551090  RH  076%=      5-min Rain = 0
KMCS 230455Z 33019G26KT M05/M09 A3008 RMK A01 T10541090  RH  076%=      5-min Rain = 0
KMCS 230500Z 33018G25KT M05/M09 A3009 RMK A01 T10531089  RH  075%=      5-min Rain = 0
KMCS 230505Z 33018G25KT M05/M09 A3009 RMK A01 T10511089  RH  075%=      5-min Rain = 0
KMCS 230510Z 33019KT M05/M09 A3009 RMK A01 T10511090  RH  074%=      5-min Rain = 0
KMCS 230515Z 33019KT M05/M09 A3009 RMK A01 T10521091  RH  074%=      5-min Rain = 0
KMCS 230520Z 33020G26KT M05/M09 A3009 RMK A01 T10511091  RH  073%=      5-min Rain = 0
KMCS 230525Z 33021KT M05/M09 A3009 RMK A01 T10521092  RH  073%=      5-min Rain = 0
KMCS 230530Z 33020KT M05/M09 A3009 RMK A01 T10521092  RH  073%=      5-min Rain = 0
KMCS 230535Z 33019G24KT M05/M09 A3009 RMK A01 T10521092  RH  073%=      5-min Rain = 0
KMCS 230540Z 33018KT M05/M09 A3009 RMK A01 T10521093  RH  073%=      5-min Rain = 0
KMCS 230545Z 33018G23KT M05/M09 A3009 RMK A01 T10521092  RH  073%=      5-min Rain = 0
KMCS 230550Z 33017G22KT M05/M09 A301 RMK A01 T10521092  RH  073%=      5-min Rain = 0
KMCS 230555Z 33017KT M05/M09 A301 RMK A01 T10521092  RH  073%=      5-min Rain = 0

Page generated in 0.016 seconds.